sensor_id;sensor_type;location;lat;lon;timestamp;pressure;altitude;pressure_sealevel;temperature;humidity
4469;BME280;2247;42.666;23.292;2023-04-21T00:01:05;93973.44;;;15.19;50.62
4469;BME280;2247;42.666;23.292;2023-04-21T00:03:33;93962.75;;;15.02;51.05
4469;BME280;2247;42.666;23.292;2023-04-21T00:06:03;93959.81;;;15.04;50.78
4469;BME280;2247;42.666;23.292;2023-04-21T00:08:31;93963.72;;;15.06;50.93
4469;BME280;2247;42.666;23.292;2023-04-21T00:10:58;93963.84;;;15.01;50.61
4469;BME280;2247;42.666;23.292;2023-04-21T00:13:25;93970.94;;;15.14;50.36
4469;BME280;2247;42.666;23.292;2023-04-21T00:15:52;93961.09;;;15.23;49.92
4469;BME280;2247;42.666;23.292;2023-04-21T00:18:20;93964.69;;;15.19;50.05
4469;BME280;2247;42.666;23.292;2023-04-21T00:20:47;93964.09;;;15.39;49.56
4469;BME280;2247;42.666;23.292;2023-04-21T00:23:14;93962.97;;;15.31;49.55
4469;BME280;2247;42.666;23.292;2023-04-21T00:25:41;93959.84;;;15.29;49.36
4469;BME280;2247;42.666;23.292;2023-04-21T00:28:07;93966.88;;;15.25;49.41
4469;BME280;2247;42.666;23.292;2023-04-21T00:30:34;93965.63;;;15.14;50.07
4469;BME280;2247;42.666;23.292;2023-04-21T00:33:01;93962.97;;;15.23;49.84
4469;BME280;2247;42.666;23.292;2023-04-21T00:35:29;93965.91;;;15.21;49.58
4469;BME280;2247;42.666;23.292;2023-04-21T00:37:56;93966.88;;;15.25;49.25
4469;BME280;2247;42.666;23.292;2023-04-21T00:40:23;93961.72;;;15.37;48.63
4469;BME280;2247;42.666;23.292;2023-04-21T00:42:50;93972.50;;;15.32;48.77
4469;BME280;2247;42.666;23.292;2023-04-21T00:45:17;93969.53;;;15.25;49.20
4469;BME280;2247;42.666;23.292;2023-04-21T00:47:43;93967.16;;;15.15;49.24
4469;BME280;2247;42.666;23.292;2023-04-21T00:50:11;93966.22;;;15.11;49.48
4469;BME280;2247;42.666;23.292;2023-04-21T00:52:40;93963.41;;;15.16;49.13
4469;BME280;2247;42.666;23.292;2023-04-21T00:55:08;93965.16;;;15.21;48.97
4469;BME280;2247;42.666;23.292;2023-04-21T00:57:36;93959.53;;;15.22;48.91
4469;BME280;2247;42.666;23.292;2023-04-21T01:00:04;93930.59;;;14.95;49.25
4469;BME280;2247;42.666;23.292;2023-04-21T01:02:34;93951.72;;;15.26;49.00
4469;BME280;2247;42.666;23.292;2023-04-21T01:05:03;93944.06;;;15.24;48.75
4469;BME280;2247;42.666;23.292;2023-04-21T01:07:31;93961.56;;;15.25;48.69
4469;BME280;2247;42.666;23.292;2023-04-21T01:09:59;93955.63;;;15.28;48.70
4469;BME280;2247;42.666;23.292;2023-04-21T01:12:26;93951.88;;;15.29;48.56
4469;BME280;2247;42.666;23.292;2023-04-21T01:14:53;93956.25;;;15.25;48.72
4469;BME280;2247;42.666;23.292;2023-04-21T01:17:20;93954.34;;;15.09;49.36
4469;BME280;2247;42.666;23.292;2023-04-21T01:19:48;93954.09;;;15.27;48.67
4469;BME280;2247;42.666;23.292;2023-04-21T01:22:17;93945.94;;;15.15;48.88
4469;BME280;2247;42.666;23.292;2023-04-21T01:24:45;93924.00;;;14.84;49.50
4469;BME280;2247;42.666;23.292;2023-04-21T01:27:14;93954.84;;;15.19;49.27
4469;BME280;2247;42.666;23.292;2023-04-21T01:29:44;93948.41;;;15.03;49.50
4469;BME280;2247;42.666;23.292;2023-04-21T01:32:15;93938.75;;;15.07;49.15
4469;BME280;2247;42.666;23.292;2023-04-21T01:34:43;93935.47;;;15.19;49.00
4469;BME280;2247;42.666;23.292;2023-04-21T01:37:11;93934.97;;;15.08;49.06
4469;BME280;2247;42.666;23.292;2023-04-21T01:39:40;93942.31;;;15.03;49.14
4469;BME280;2247;42.666;23.292;2023-04-21T01:42:08;93938.25;;;14.96;49.35
4469;BME280;2247;42.666;23.292;2023-04-21T01:44:35;93941.84;;;14.92;49.44
4469;BME280;2247;42.666;23.292;2023-04-21T01:47:02;93937.28;;;14.84;50.00
4469;BME280;2247;42.666;23.292;2023-04-21T01:49:29;93935.06;;;14.77;50.50
4469;BME280;2247;42.666;23.292;2023-04-21T01:51:56;93935.22;;;14.81;50.32
4469;BME280;2247;42.666;23.292;2023-04-21T01:54:23;93936.47;;;14.75;50.20
4469;BME280;2247;42.666;23.292;2023-04-21T01:56:51;93934.44;;;14.80;50.40
4469;BME280;2247;42.666;23.292;2023-04-21T01:59:18;93937.28;;;14.84;50.20
4469;BME280;2247;42.666;23.292;2023-04-21T02:01:46;93940.97;;;14.74;50.15
4469;BME280;2247;42.666;23.292;2023-04-21T02:04:12;93939.94;;;14.84;49.52
4469;BME280;2247;42.666;23.292;2023-04-21T02:06:39;93934.56;;;14.67;50.08
4469;BME280;2247;42.666;23.292;2023-04-21T02:09:06;93910.00;;;14.44;50.42
4469;BME280;2247;42.666;23.292;2023-04-21T02:11:33;93934.56;;;14.67;50.58
4469;BME280;2247;42.666;23.292;2023-04-21T02:14:01;93939.59;;;14.77;50.40
4469;BME280;2247;42.666;23.292;2023-04-21T02:16:28;93936.13;;;14.68;50.56
4469;BME280;2247;42.666;23.292;2023-04-21T02:18:56;93942.84;;;14.65;50.36
4469;BME280;2247;42.666;23.292;2023-04-21T02:21:24;93943.16;;;14.64;50.82
4469;BME280;2247;42.666;23.292;2023-04-21T02:23:51;93936.91;;;14.68;50.25
4469;BME280;2247;42.666;23.292;2023-04-21T02:26:19;93931.47;;;14.73;50.34
4469;BME280;2247;42.666;23.292;2023-04-21T02:28:46;93937.25;;;14.75;50.33
4469;BME280;2247;42.666;23.292;2023-04-21T02:31:15;93937.41;;;14.70;50.37
4469;BME280;2247;42.666;23.292;2023-04-21T02:33:43;93941.88;;;14.61;50.55
4469;BME280;2247;42.666;23.292;2023-04-21T02:36:09;93930.00;;;14.50;50.85
4469;BME280;2247;42.666;23.292;2023-04-21T02:38:36;93932.34;;;14.51;51.30
4469;BME280;2247;42.666;23.292;2023-04-21T02:41:03;93936.56;;;14.61;50.94
4469;BME280;2247;42.666;23.292;2023-04-21T02:43:30;93924.50;;;14.46;51.02
4469;BME280;2247;42.666;23.292;2023-04-21T02:45:57;93938.44;;;14.52;51.39
4469;BME280;2247;42.666;23.292;2023-04-21T02:48:25;93942.06;;;14.65;51.38
4469;BME280;2247;42.666;23.292;2023-04-21T02:50:52;93940.97;;;14.74;50.77
4469;BME280;2247;42.666;23.292;2023-04-21T02:53:19;93935.81;;;14.69;51.06
4469;BME280;2247;42.666;23.292;2023-04-21T02:55:46;93937.09;;;14.72;50.92
4469;BME280;2247;42.666;23.292;2023-04-21T02:58:13;93935.69;;;14.74;50.73
4469;BME280;2247;42.666;23.292;2023-04-21T03:00:41;93914.56;;;14.61;50.72
4469;BME280;2247;42.666;23.292;2023-04-21T03:03:08;93936.94;;;14.77;50.76
4469;BME280;2247;42.666;23.292;2023-04-21T03:05:36;93941.56;;;14.63;51.33
4469;BME280;2247;42.666;23.292;2023-04-21T03:08:03;93939.53;;;14.59;51.64
4469;BME280;2247;42.666;23.292;2023-04-21T03:10:30;93941.22;;;14.55;51.50
4469;BME280;2247;42.666;23.292;2023-04-21T03:12:57;93947.03;;;14.57;51.81
4469;BME280;2247;42.666;23.292;2023-04-21T03:15:24;93940.94;;;14.57;51.33
4469;BME280;2247;42.666;23.292;2023-04-21T03:17:50;93941.28;;;14.64;51.15
4469;BME280;2247;42.666;23.292;2023-04-21T03:20:17;93946.56;;;14.64;51.57
4469;BME280;2247;42.666;23.292;2023-04-21T03:22:46;93936.59;;;14.70;51.06
4469;BME280;2247;42.666;23.292;2023-04-21T03:25:12;93942.41;;;14.80;50.27
4469;BME280;2247;42.666;23.292;2023-04-21T03:27:39;93941.03;;;14.83;50.46
4469;BME280;2247;42.666;23.292;2023-04-21T03:30:07;93940.88;;;14.88;50.31
4469;BME280;2247;42.666;23.292;2023-04-21T03:32:34;93947.41;;;14.82;50.74
4469;BME280;2247;42.666;23.292;2023-04-21T03:35:00;93946.81;;;14.85;50.59
4469;BME280;2247;42.666;23.292;2023-04-21T03:37:27;93902.44;;;14.68;50.15
4469;BME280;2247;42.666;23.292;2023-04-21T03:39:55;93950.25;;;14.85;50.25
4469;BME280;2247;42.666;23.292;2023-04-21T03:42:22;93953.03;;;14.89;50.14
4469;BME280;2247;42.666;23.292;2023-04-21T03:44:50;93951.16;;;14.81;50.86
4469;BME280;2247;42.666;23.292;2023-04-21T03:47:17;93949.28;;;14.73;50.92
4469;BME280;2247;42.666;23.292;2023-04-21T03:49:43;93946.72;;;14.68;50.99
4469;BME280;2247;42.666;23.292;2023-04-21T03:52:11;93950.22;;;14.77;51.05
4469;BME280;2247;42.666;23.292;2023-04-21T03:54:37;93957.03;;;14.69;51.08
4469;BME280;2247;42.666;23.292;2023-04-21T03:57:06;93963.13;;;14.70;51.20
4469;BME280;2247;42.666;23.292;2023-04-21T03:59:32;93964.56;;;14.76;51.22
4469;BME280;2247;42.666;23.292;2023-04-21T04:01:59;93971.91;;;14.79;50.93
4469;BME280;2247;42.666;23.292;2023-04-21T04:04:26;93963.91;;;14.70;51.14
4469;BME280;2247;42.666;23.292;2023-04-21T04:06:53;93971.44;;;14.77;51.37
4469;BME280;2247;42.666;23.292;2023-04-21T04:09:20;93974.41;;;14.84;51.05
4469;BME280;2247;42.666;23.292;2023-04-21T04:11:47;93973.16;;;14.81;51.09
4469;BME280;2247;42.666;23.292;2023-04-21T04:14:15;93980.09;;;15.00;50.90
4469;BME280;2247;42.666;23.292;2023-04-21T04:16:42;93981.69;;;15.18;52.11
4469;BME280;2247;42.666;23.292;2023-04-21T04:19:09;93981.13;;;15.47;52.27
4469;BME280;2247;42.666;23.292;2023-04-21T04:21:36;93981.16;;;15.64;51.53
4469;BME280;2247;42.666;23.292;2023-04-21T04:24:03;93992.56;;;15.64;50.35
4469;BME280;2247;42.666;23.292;2023-04-21T04:26:30;93965.00;;;15.43;49.08
4469;BME280;2247;42.666;23.292;2023-04-21T04:28:59;93989.09;;;15.47;49.44
4469;BME280;2247;42.666;23.292;2023-04-21T04:31:28;93992.03;;;15.36;49.58
4469;BME280;2247;42.666;23.292;2023-04-21T04:33:55;93996.88;;;15.34;49.28
4469;BME280;2247;42.666;23.292;2023-04-21T04:36:21;93998.16;;;15.46;49.16
4469;BME280;2247;42.666;23.292;2023-04-21T04:38:48;93990.22;;;15.54;49.27
4469;BME280;2247;42.666;23.292;2023-04-21T04:41:15;94002.81;;;15.40;49.18
4469;BME280;2247;42.666;23.292;2023-04-21T04:43:42;94001.88;;;15.45;49.21
4469;BME280;2247;42.666;23.292;2023-04-21T04:46:08;94007.69;;;15.47;49.26
4469;BME280;2247;42.666;23.292;2023-04-21T04:48:38;94007.19;;;15.36;49.09
4469;BME280;2247;42.666;23.292;2023-04-21T04:51:05;93993.25;;;15.22;49.70
4469;BME280;2247;42.666;23.292;2023-04-21T04:53:32;93993.75;;;15.32;49.37
4469;BME280;2247;42.666;23.292;2023-04-21T04:55:59;94002.97;;;15.35;49.33
4469;BME280;2247;42.666;23.292;2023-04-21T04:58:26;94009.13;;;15.53;49.02
4469;BME280;2247;42.666;23.292;2023-04-21T05:00:53;93993.59;;;15.37;49.15
4469;BME280;2247;42.666;23.292;2023-04-21T05:03:20;94002.66;;;15.45;49.30
4469;BME280;2247;42.666;23.292;2023-04-21T05:05:48;93993.69;;;15.15;49.59
4469;BME280;2247;42.666;23.292;2023-04-21T05:08:15;94005.19;;;15.42;49.97
4469;BME280;2247;42.666;23.292;2023-04-21T05:10:41;94011.56;;;15.41;49.60
4469;BME280;2247;42.666;23.292;2023-04-21T05:13:08;94003.72;;;15.35;49.91
4469;BME280;2247;42.666;23.292;2023-04-21T05:15:35;94016.88;;;15.41;49.71
4469;BME280;2247;42.666;23.292;2023-04-21T05:18:03;94014.13;;;15.54;49.00
4469;BME280;2247;42.666;23.292;2023-04-21T05:20:31;94009.25;;;15.48;49.70
4469;BME280;2247;42.666;23.292;2023-04-21T05:22:59;94022.25;;;15.58;49.75
4469;BME280;2247;42.666;23.292;2023-04-21T05:25:26;94010.72;;;15.62;49.81
4469;BME280;2247;42.666;23.292;2023-04-21T05:27:53;93988.03;;;15.56;49.24
4469;BME280;2247;42.666;23.292;2023-04-21T05:30:21;94013.47;;;15.49;49.94
4469;BME280;2247;42.666;23.292;2023-04-21T05:32:48;94012.50;;;15.45;50.21
4469;BME280;2247;42.666;23.292;2023-04-21T05:35:15;94013.47;;;15.49;50.72
4469;BME280;2247;42.666;23.292;2023-04-21T05:37:42;94011.00;;;15.61;50.10
4469;BME280;2247;42.666;23.292;2023-04-21T05:40:11;94007.53;;;15.52;50.29
4469;BME280;2247;42.666;23.292;2023-04-21T05:42:38;93993.59;;;15.37;50.45
4469;BME280;2247;42.666;23.292;2023-04-21T05:45:06;94016.00;;;15.54;50.33
4469;BME280;2247;42.666;23.292;2023-04-21T05:47:34;93997.34;;;15.36;50.57
4469;BME280;2247;42.666;23.292;2023-04-21T05:50:02;94010.19;;;15.52;50.37
4469;BME280;2247;42.666;23.292;2023-04-21T05:52:29;94014.88;;;15.46;51.02
4469;BME280;2247;42.666;23.292;2023-04-21T05:54:57;94011.63;;;15.58;51.02
4469;BME280;2247;42.666;23.292;2023-04-21T05:57:26;94015.41;;;15.83;50.70
4469;BME280;2247;42.666;23.292;2023-04-21T05:59:53;94014.13;;;16.06;49.48
4469;BME280;2247;42.666;23.292;2023-04-21T06:02:21;94014.13;;;15.97;50.25
4469;BME280;2247;42.666;23.292;2023-04-21T06:04:47;94005.03;;;16.33;49.97
4469;BME280;2247;42.666;23.292;2023-04-21T06:07:15;93982.94;;;16.58;48.49
4469;BME280;2247;42.666;23.292;2023-04-21T06:09:42;93999.91;;;16.91;48.46
4469;BME280;2247;42.666;23.292;2023-04-21T06:12:09;93988.44;;;17.00;48.00
4469;BME280;2247;42.666;23.292;2023-04-21T06:14:38;93960.53;;;17.06;47.44
4469;BME280;2247;42.666;23.292;2023-04-21T06:17:05;94002.41;;;17.55;46.84
4469;BME280;2247;42.666;23.292;2023-04-21T06:19:36;93986.69;;;17.62;45.90
4469;BME280;2247;42.666;23.292;2023-04-21T06:22:05;94004.50;;;17.41;46.67
4469;BME280;2247;42.666;23.292;2023-04-21T06:24:31;93996.97;;;17.73;46.88
4469;BME280;2247;42.666;23.292;2023-04-21T06:26:58;94014.72;;;18.10;45.39
4469;BME280;2247;42.666;23.292;2023-04-21T06:29:26;94001.72;;;18.41;44.75
4469;BME280;2247;42.666;23.292;2023-04-21T06:31:56;94006.31;;;18.53;44.49
4469;BME280;2247;42.666;23.292;2023-04-21T06:34:22;93998.72;;;18.76;43.88
4469;BME280;2247;42.666;23.292;2023-04-21T06:36:49;94003.66;;;18.98;43.29
4469;BME280;2247;42.666;23.292;2023-04-21T06:39:17;93982.28;;;18.86;42.85
4469;BME280;2247;42.666;23.292;2023-04-21T06:41:44;93986.41;;;18.50;43.63
4469;BME280;2247;42.666;23.292;2023-04-21T06:44:11;93999.75;;;18.18;44.31
4469;BME280;2247;42.666;23.292;2023-04-21T06:46:39;93985.13;;;18.03;45.02
4469;BME280;2247;42.666;23.292;2023-04-21T06:49:07;93982.09;;;18.25;44.64
4469;BME280;2247;42.666;23.292;2023-04-21T06:51:34;93987.25;;;18.42;44.27
4469;BME280;2247;42.666;23.292;2023-04-21T06:54:02;93986.44;;;18.63;44.70
4469;BME280;2247;42.666;23.292;2023-04-21T06:56:30;93991.47;;;18.64;43.46
4469;BME280;2247;42.666;23.292;2023-04-21T06:58:57;93985.91;;;18.69;43.63
4469;BME280;2247;42.666;23.292;2023-04-21T07:01:24;93986.75;;;18.94;43.24
4469;BME280;2247;42.666;23.292;2023-04-21T07:04:01;93983.59;;;19.16;42.66
4469;BME280;2247;42.666;23.292;2023-04-21T07:06:36;93963.69;;;19.14;42.62
4469;BME280;2247;42.666;23.292;2023-04-21T07:09:03;93958.78;;;19.04;42.90
4469;BME280;2247;42.666;23.292;2023-04-21T07:11:30;93982.41;;;19.14;43.41
4469;BME280;2247;42.666;23.292;2023-04-21T07:13:57;93981.28;;;19.39;42.37
4469;BME280;2247;42.666;23.292;2023-04-21T07:16:26;93980.72;;;19.09;42.24
4469;BME280;2247;42.666;23.292;2023-04-21T07:18:53;93988.28;;;18.95;42.83
4469;BME280;2247;42.666;23.292;2023-04-21T07:21:20;93984.63;;;19.00;42.86
4469;BME280;2247;42.666;23.292;2023-04-21T07:23:49;93987.63;;;19.10;43.19
4469;BME280;2247;42.666;23.292;2023-04-21T07:26:16;93984.06;;;19.18;43.17
4469;BME280;2247;42.666;23.292;2023-04-21T07:28:44;93975.50;;;19.25;42.33
4469;BME280;2247;42.666;23.292;2023-04-21T07:31:14;93975.16;;;19.39;42.58
4469;BME280;2247;42.666;23.292;2023-04-21T07:33:42;93946.56;;;19.15;42.15
4469;BME280;2247;42.666;23.292;2023-04-21T07:36:15;93967.13;;;19.02;42.07
4469;BME280;2247;42.666;23.292;2023-04-21T07:38:42;93977.16;;;18.93;43.19
4469;BME280;2247;42.666;23.292;2023-04-21T07:41:12;93972.94;;;18.80;43.17
4469;BME280;2247;42.666;23.292;2023-04-21T07:43:40;93971.78;;;18.81;43.39
4469;BME280;2247;42.666;23.292;2023-04-21T07:46:07;93979.28;;;19.00;43.26
4469;BME280;2247;42.666;23.292;2023-04-21T07:48:35;93966.56;;;19.09;42.41
4469;BME280;2247;42.666;23.292;2023-04-21T07:51:03;93974.03;;;19.40;42.43
4469;BME280;2247;42.666;23.292;2023-04-21T07:53:32;93968.69;;;19.40;41.95
4469;BME280;2247;42.666;23.292;2023-04-21T07:56:14;93991.53;;;19.61;41.96
4469;BME280;2247;42.666;23.292;2023-04-21T07:58:41;93987.63;;;19.59;41.82
4469;BME280;2247;42.666;23.292;2023-04-21T08:01:09;93994.84;;;19.58;41.26
4469;BME280;2247;42.666;23.292;2023-04-21T08:03:36;93989.63;;;19.62;41.23
4469;BME280;2247;42.666;23.292;2023-04-21T08:06:03;93974.91;;;19.68;41.45
4469;BME280;2247;42.666;23.292;2023-04-21T08:08:31;93986.69;;;19.79;41.09
4469;BME280;2247;42.666;23.292;2023-04-21T08:10:58;93966.69;;;19.61;41.58
4469;BME280;2247;42.666;23.292;2023-04-21T08:13:27;93970.78;;;19.58;41.21
4469;BME280;2247;42.666;23.292;2023-04-21T08:15:56;93979.06;;;19.41;41.29
4469;BME280;2247;42.666;23.292;2023-04-21T08:18:23;93981.63;;;19.25;41.64
4469;BME280;2247;42.666;23.292;2023-04-21T08:20:50;93978.25;;;19.16;41.99
4469;BME280;2247;42.666;23.292;2023-04-21T08:23:19;93963.81;;;18.93;42.34
4469;BME280;2247;42.666;23.292;2023-04-21T08:25:47;93970.34;;;18.96;42.57
4469;BME280;2247;42.666;23.292;2023-04-21T08:28:15;93979.03;;;19.17;42.33
4469;BME280;2247;42.666;23.292;2023-04-21T08:30:44;93968.03;;;19.06;42.52
4469;BME280;2247;42.666;23.292;2023-04-21T08:33:11;93975.94;;;19.15;42.65
4469;BME280;2247;42.666;23.292;2023-04-21T08:35:40;93950.13;;;18.95;42.40
4469;BME280;2247;42.666;23.292;2023-04-21T08:38:08;93973.28;;;19.15;42.32
4469;BME280;2247;42.666;23.292;2023-04-21T08:40:36;93974.03;;;19.15;42.21
4469;BME280;2247;42.666;23.292;2023-04-21T08:43:04;93950.88;;;18.95;42.34
4469;BME280;2247;42.666;23.292;2023-04-21T08:45:32;93964.47;;;19.14;42.23
4469;BME280;2247;42.666;23.292;2023-04-21T08:48:02;93976.38;;;19.05;42.37
4469;BME280;2247;42.666;23.292;2023-04-21T08:50:34;93966.25;;;18.98;42.34
4469;BME280;2247;42.666;23.292;2023-04-21T08:53:04;93972.47;;;18.90;42.46
4469;BME280;2247;42.666;23.292;2023-04-21T08:55:31;93957.78;;;18.84;43.14
4469;BME280;2247;42.666;23.292;2023-04-21T08:58:03;93961.47;;;18.92;42.91
4469;BME280;2247;42.666;23.292;2023-04-21T09:00:31;93949.34;;;18.94;42.34
4469;BME280;2247;42.666;23.292;2023-04-21T09:02:59;93946.13;;;19.01;42.58
4469;BME280;2247;42.666;23.292;2023-04-21T09:05:30;93954.00;;;18.97;42.47
4469;BME280;2247;42.666;23.292;2023-04-21T09:08:07;93931.75;;;19.05;42.47
4469;BME280;2247;42.666;23.292;2023-04-21T09:10:41;93952.22;;;19.25;41.83
4469;BME280;2247;42.666;23.292;2023-04-21T09:13:09;93954.66;;;19.31;42.40
4469;BME280;2247;42.666;23.292;2023-04-21T09:15:40;93956.34;;;19.47;42.04
4469;BME280;2247;42.666;23.292;2023-04-21T09:18:12;93929.06;;;19.42;42.02
4469;BME280;2247;42.666;23.292;2023-04-21T09:20:43;93925.84;;;19.48;41.75
4469;BME280;2247;42.666;23.292;2023-04-21T09:23:12;93943.44;;;19.49;41.68
4469;BME280;2247;42.666;23.292;2023-04-21T09:25:44;93931.50;;;19.35;41.34
4469;BME280;2247;42.666;23.292;2023-04-21T09:28:30;93942.84;;;19.44;41.84
4469;BME280;2247;42.666;23.292;2023-04-21T09:30:57;93928.59;;;19.40;40.82
4469;BME280;2247;42.666;23.292;2023-04-21T09:33:27;93926.38;;;19.42;41.06
4469;BME280;2247;42.666;23.292;2023-04-21T09:36:00;93931.03;;;19.45;40.85
4469;BME280;2247;42.666;23.292;2023-04-21T09:38:27;93926.72;;;19.52;40.42
4469;BME280;2247;42.666;23.292;2023-04-21T09:40:58;93921.03;;;19.54;41.01
4469;BME280;2247;42.666;23.292;2023-04-21T09:43:26;93925.03;;;19.60;40.90
4469;BME280;2247;42.666;23.292;2023-04-21T09:45:54;93930.63;;;19.55;41.02
4469;BME280;2247;42.666;23.292;2023-04-21T09:48:23;93924.38;;;19.51;40.80
4469;BME280;2247;42.666;23.292;2023-04-21T09:50:58;93929.25;;;19.61;40.88
4469;BME280;2247;42.666;23.292;2023-04-21T09:53:27;93922.22;;;19.44;40.33
4469;BME280;2247;42.666;23.292;2023-04-21T09:55:56;93933.72;;;19.45;40.49
4469;BME280;2247;42.666;23.292;2023-04-21T09:58:26;93931.16;;;19.36;40.97
4469;BME280;2247;42.666;23.292;2023-04-21T10:00:56;93875.41;;;19.22;39.94
4469;BME280;2247;42.666;23.292;2023-04-21T10:03:27;93907.22;;;19.40;40.40
4469;BME280;2247;42.666;23.292;2023-04-21T10:05:59;93918.03;;;19.55;40.29
4469;BME280;2247;42.666;23.292;2023-04-21T10:08:27;93897.63;;;19.51;39.40
4469;BME280;2247;42.666;23.292;2023-04-21T10:10:55;93908.31;;;19.51;39.08
4469;BME280;2247;42.666;23.292;2023-04-21T10:13:22;93906.88;;;19.53;38.55
4469;BME280;2247;42.666;23.292;2023-04-21T10:16:00;93877.72;;;19.48;39.02
4469;BME280;2247;42.666;23.292;2023-04-21T10:18:28;93899.94;;;19.64;38.74
4469;BME280;2247;42.666;23.292;2023-04-21T10:20:56;93887.31;;;19.49;38.75
4469;BME280;2247;42.666;23.292;2023-04-21T10:23:30;93911.22;;;19.46;39.09
4469;BME280;2247;42.666;23.292;2023-04-21T10:26:11;93888.88;;;19.26;39.84
4469;BME280;2247;42.666;23.292;2023-04-21T10:28:45;93907.94;;;19.12;40.25
4469;BME280;2247;42.666;23.292;2023-04-21T10:31:28;93898.81;;;19.13;40.61
4469;BME280;2247;42.666;23.292;2023-04-21T10:34:14;93901.38;;;19.10;39.66
4469;BME280;2247;42.666;23.292;2023-04-21T10:36:47;93903.50;;;19.04;38.99
4469;BME280;2247;42.666;23.292;2023-04-21T10:39:28;93897.03;;;19.05;39.23
4469;BME280;2247;42.666;23.292;2023-04-21T10:41:56;93870.69;;;18.92;39.09
4469;BME280;2247;42.666;23.292;2023-04-21T10:44:27;93903.69;;;19.23;39.38
4469;BME280;2247;42.666;23.292;2023-04-21T10:46:57;93883.19;;;19.15;38.60
4469;BME280;2247;42.666;23.292;2023-04-21T10:49:25;93896.22;;;19.17;39.35
4469;BME280;2247;42.666;23.292;2023-04-21T10:52:04;93908.78;;;19.41;39.44
4469;BME280;2247;42.666;23.292;2023-04-21T10:55:03;93915.25;;;19.40;39.36
4469;BME280;2247;42.666;23.292;2023-04-21T10:57:33;93907.66;;;19.29;39.27
4469;BME280;2247;42.666;23.292;2023-04-21T11:00:02;93909.16;;;19.27;39.60
4469;BME280;2247;42.666;23.292;2023-04-21T11:02:32;93893.69;;;19.20;39.29
4469;BME280;2247;42.666;23.292;2023-04-21T11:05:01;93910.59;;;19.24;39.64
4469;BME280;2247;42.666;23.292;2023-04-21T11:07:29;93899.25;;;19.27;39.97
4469;BME280;2247;42.666;23.292;2023-04-21T11:09:59;93901.53;;;19.41;39.49
4469;BME280;2247;42.666;23.292;2023-04-21T11:12:28;93880.38;;;19.36;38.81
4469;BME280;2247;42.666;23.292;2023-04-21T11:14:57;93884.06;;;19.32;38.60
4469;BME280;2247;42.666;23.292;2023-04-21T11:17:24;93881.31;;;19.28;38.04
4469;BME280;2247;42.666;23.292;2023-04-21T11:19:55;93882.31;;;19.36;37.93
4469;BME280;2247;42.666;23.292;2023-04-21T11:22:24;93885.75;;;19.24;38.30
4469;BME280;2247;42.666;23.292;2023-04-21T11:24:54;93887.06;;;19.30;39.35
4469;BME280;2247;42.666;23.292;2023-04-21T11:27:25;93871.50;;;19.32;39.31
4469;BME280;2247;42.666;23.292;2023-04-21T11:29:53;93891.09;;;19.24;38.91
4469;BME280;2247;42.666;23.292;2023-04-21T11:32:22;93862.56;;;19.00;38.12
4469;BME280;2247;42.666;23.292;2023-04-21T11:34:49;93884.22;;;19.11;37.25
4469;BME280;2247;42.666;23.292;2023-04-21T11:37:23;93872.00;;;18.98;37.95
4469;BME280;2247;42.666;23.292;2023-04-21T11:39:56;93892.13;;;19.19;38.77
4469;BME280;2247;42.666;23.292;2023-04-21T11:42:25;93893.34;;;19.22;39.26
4469;BME280;2247;42.666;23.292;2023-04-21T11:44:54;93870.97;;;19.02;39.86
4469;BME280;2247;42.666;23.292;2023-04-21T11:47:23;93878.88;;;19.11;39.47
4469;BME280;2247;42.666;23.292;2023-04-21T11:49:52;93893.00;;;19.23;39.10
4469;BME280;2247;42.666;23.292;2023-04-21T11:52:24;93890.78;;;19.25;38.43
4469;BME280;2247;42.666;23.292;2023-04-21T11:54:56;93891.44;;;19.22;37.55
4469;BME280;2247;42.666;23.292;2023-04-21T11:57:25;93876.44;;;19.06;37.47
4469;BME280;2247;42.666;23.292;2023-04-21T11:59:53;93890.66;;;19.34;37.60
4469;BME280;2247;42.666;23.292;2023-04-21T12:02:25;93893.41;;;19.38;37.71
4469;BME280;2247;42.666;23.292;2023-04-21T12:04:59;93891.63;;;19.29;37.71
4469;BME280;2247;42.666;23.292;2023-04-21T12:07:31;93893.69;;;19.20;38.09
4469;BME280;2247;42.666;23.292;2023-04-21T12:09:59;93898.81;;;19.13;37.25
4469;BME280;2247;42.666;23.292;2023-04-21T12:12:29;93895.44;;;19.16;37.07
4469;BME280;2247;42.666;23.292;2023-04-21T12:14:56;93890.69;;;19.10;36.76
4469;BME280;2247;42.666;23.292;2023-04-21T12:17:26;93900.38;;;19.14;36.95
4469;BME280;2247;42.666;23.292;2023-04-21T12:20:04;93879.91;;;18.94;36.94
4469;BME280;2247;42.666;23.292;2023-04-21T12:22:32;93903.03;;;19.14;37.21
4469;BME280;2247;42.666;23.292;2023-04-21T12:25:00;93897.91;;;19.21;37.21
4469;BME280;2247;42.666;23.292;2023-04-21T12:27:28;93888.69;;;19.07;37.54
4469;BME280;2247;42.666;23.292;2023-04-21T12:29:56;93894.13;;;19.10;37.68
4469;BME280;2247;42.666;23.292;2023-04-21T12:32:29;93897.59;;;18.99;37.57
4469;BME280;2247;42.666;23.292;2023-04-21T12:34:59;93876.69;;;19.01;37.80
4469;BME280;2247;42.666;23.292;2023-04-21T12:37:27;93886.78;;;18.95;38.37
4469;BME280;2247;42.666;23.292;2023-04-21T12:39:56;93873.22;;;19.00;38.03
4469;BME280;2247;42.666;23.292;2023-04-21T12:42:25;93881.88;;;19.09;37.71
4469;BME280;2247;42.666;23.292;2023-04-21T12:44:56;93875.66;;;19.05;38.03
4469;BME280;2247;42.666;23.292;2023-04-21T12:47:23;93887.56;;;19.20;37.93
4469;BME280;2247;42.666;23.292;2023-04-21T12:49:51;93896.19;;;19.41;37.55
4469;BME280;2247;42.666;23.292;2023-04-21T12:52:18;93879.63;;;19.23;37.11
4469;BME280;2247;42.666;23.292;2023-04-21T12:54:47;93887.28;;;19.37;37.14
4469;BME280;2247;42.666;23.292;2023-04-21T12:57:18;93899.44;;;19.35;37.27
4469;BME280;2247;42.666;23.292;2023-04-21T12:59:46;93889.06;;;19.45;37.17
4469;BME280;2247;42.666;23.292;2023-04-21T13:02:17;93894.41;;;19.45;37.62
4469;BME280;2247;42.666;23.292;2023-04-21T13:04:44;93872.28;;;19.33;37.35
4469;BME280;2247;42.666;23.292;2023-04-21T13:07:11;93882.72;;;19.38;38.03
4469;BME280;2247;42.666;23.292;2023-04-21T13:09:40;93874.13;;;19.44;38.59
4469;BME280;2247;42.666;23.292;2023-04-21T13:12:08;93878.16;;;19.38;39.14
4469;BME280;2247;42.666;23.292;2023-04-21T13:14:36;93867.38;;;19.35;39.01
4469;BME280;2247;42.666;23.292;2023-04-21T13:17:03;93882.94;;;19.45;37.86